Alkol, West Virginia
Current Conditions -  °F | °C
As of 3:54 AM on Thursday 23 Oct 2014 (Local Time) from KCRW Reporting Station
Overcast Overcast  
Wind Chill: 47°   Ceiling: 2900
Heat Index: 47°   Visibility: 10mi
Dew Point: 42°   Wind: 0mph
Humidity: 83%   Direction: NA
Pressure: 30.18"   Gusts: NA
Location:  38.16°N, 81.92°W
Report Text: KCRW 230754Z 00000KT 10SM OVC029 08/06 A3018 RMK AO2 SLP221 T00830056
Loading
Personal Weather Stations






























Interactive Weather Map
Tropical Storm Tracking
New forecast layout! Learn more

10-Day Weather Forecast

Advertisements
Track Severe Weather on mobile